Terminal Aerodrome Forecast
Issued by NWS

Home | Current Version | Previous Version | Text Only | Print | Product List | Glossary On
Versions: 1 2 3 4 5 6 7 8 9 10 11
000
FTUS42 TJSJ 171742
TAFJPS
TAF
TJPS 171742Z 1718/1818 12015KT P6SM FEW030 SCT060
     FM172300 08010KT P6SM FEW030
     FM181200 12016KT P6SM FEW030 SCT060
      AMD NOT SKED=

USA.gov is the U.S. government's official web portal to all federal, state and local government web resources and services.